Houston Heights, Texas
Current Conditions -  °F | °C
As of 5:15 PM on Wednesday 22 Oct 2014 (Local Time) from KMCJ Reporting Station
Few Clouds Few Clouds  
Wind Chill: 81°   Ceiling: Unl
Heat Index: 81°   Visibility: 10mi
Dew Point: 55°   Wind: 6mph
Humidity: 42%   Direction: 20°NNE
Pressure: 30"   Gusts: NA
Location:  29.7982°N, 95.4183°W
Report Text: KMCJ 222215Z AUTO 02005KT 10SM FEW049 27/13 A3000 RMK AO1
Loading
Personal Weather Stations






























Interactive Weather Map
Tropical Storm Tracking
New forecast layout! Learn more

10-Day Weather Forecast

Advertisements
Track Severe Weather on mobile